Aérodrome :
LOGIN :

S'inscrire | Disclaimer

   EN    FR    IT 

 










Légende :    VFR   VFR Marginal   IFR   IFR Intensif   IFR Très Intensif
Visi : 
Plafond : 
>= 8 km
>= 3000ft
5 à 8 km
1000 à 3000 ft
1500m à 5 km
500 à 1000 ft
800 à 1500m
200 à 500 ft
< 800m
< 200 ft
Symboles :   Orages  Brouillard  Fortes neiges  Fortes précipitations  Vent > 20 kt
SIGMETs :   Divers  Orages  Givrage  Turbulence  Onde Orograph.  Cendres Volcan.







- Altitude de l'aérodrome : 287 ft
- Voir les cartes d'approche


LFRL - Lanveoc Poulmic

DERNIER METAR :
  • 300230Z AUTO 14008KT 110V170 9999 NCD 11/09 Q0999

METARs EXPIRÉS :
  • 300200Z AUTO 15008KT 9999 FEW019/// BKN066/// BKN084/// 11/09 Q0999
  • 300130Z AUTO 15009KT 120V180 9999 BKN016/// BKN022/// BKN072/// 12/09 Q1000
  • 300100Z AUTO 14010KT 9999 BKN019/// BKN026/// OVC084/// 12/09 Q1000
  • 300030Z AUTO 15009KT 9999 BKN018/// OVC025/// 12/09 Q1000
  • 300000Z AUTO 15010KT 9999 BKN024/// BKN076/// BKN096/// 12/08 Q1001

Prévision TAF périmée.
Pas de NOTAMs connus pour ce terrain.



MET'MAP, la Météo Aéronautique d'un coup d'oeil ! - Copyright ORBIFLY Décembre 2007 - Disclaimer

ORBIFLY MET'MAP TEAM :

Programmation & Développement : Alexandra Zaïnal
Conception & Développement : Baudouin d'Aumeries
Co-Programmation & Développement : Marc-Olivier Méhu
Soutien technique & logistique : Manuel Goepfert

Contact : metmap@orbifly.com




SOURCES & CREDITS :

   NOAA